Time;durP1;ratioP1;P1;durP2;ratioP2;P2;SDS_P1;SDS_P2;PMS_P1;PMS_P2;Temp;Humidity;BMP_temperature;BMP_pressure;BME280_temperature;BME280_humidity;BME280_pressure;Samples;Min_cycle;Max_cycle;Signal;HPM_P1;HPM_P2
2021/04/15 00:02:08;92710.00;0.31;160.99;0.00;0.00;0.62;;;;;12.00;1.00;;;;;;2265134;61;953;-89
2021/04/15 00:04:34;26213.00;0.09;46.03;0.00;0.00;0.62;;;;;11.90;1.00;;;;;;2260617;61;938;-89
2021/04/15 00:07:00;0.00;0.00;0.62;0.00;0.00;0.62;;;;;11.90;1.00;;;;;;2253984;61;1030;-86
2021/04/15 00:09:28;89239.00;0.30;154.99;0.00;0.00;0.62;;;;;11.70;1.00;;;;;;2253999;61;1034;-87
2021/04/15 00:11:55;37053.00;0.12;64.79;0.00;0.00;0.62;;;;;11.60;1.00;;;;;;2252488;61;2018;-86
2021/04/15 00:14:25;23718.00;0.08;41.71;0.00;0.00;0.62;;;;;11.80;1.00;;;;;;2240668;62;1039;-86
2021/04/15 00:16:53;53135.00;0.18;92.61;0.00;0.00;0.62;;;;;11.60;1.00;;;;;;2240629;62;1093;-89
2021/04/15 00:19:20;38897.00;0.13;67.98;0.00;0.00;0.62;;;;;11.30;1.00;;;;;;2240565;62;1051;-88
2021/04/15 00:21:48;13173.00;0.04;23.45;0.00;0.00;0.62;;;;;11.40;1.00;;;;;;2241232;62;1340;-89
2021/04/15 00:24:15;4869.00;0.02;9.06;0.00;0.00;0.62;;;;;11.30;1.00;;;;;;2238073;61;985;-87
2021/04/15 00:26:43;83519.00;0.28;145.12;0.00;0.00;0.62;;;;;11.30;1.00;;;;;;2236704;62;1057;-88
2021/04/15 00:29:10;0.00;0.00;0.62;0.00;0.00;0.62;;;;;11.40;1.00;;;;;;2234827;61;1053;-87
2021/04/15 00:31:36;132679.00;0.44;229.95;0.00;0.00;0.62;;;;;11.40;1.00;;;;;;2246460;61;2006;-87
2021/04/15 00:34:03;36276.00;0.12;63.44;0.00;0.00;0.62;;;;;11.50;1.00;;;;;;2248522;61;1005;-88
2021/04/15 00:36:30;0.00;0.00;0.62;0.00;0.00;0.62;;;;;11.40;1.00;;;;;;2248503;61;1101;-89
2021/04/15 00:38:56;0.00;0.00;0.62;0.00;0.00;0.62;;;;;11.70;1.00;;;;;;2248515;61;999;-88
2021/04/15 00:41:24;18986.00;0.06;33.51;0.00;0.00;0.62;;;;;11.80;1.00;;;;;;2248547;61;1382;-88
2021/04/15 00:43:51;160538.00;0.54;277.97;0.00;0.00;0.62;;;;;11.60;1.00;;;;;;2246219;61;1078;-89
2021/04/15 00:46:51;0.00;0.00;0.62;0.00;0.00;0.62;;;;;11.60;1.00;;;;;;2256443;61;1113;-88
2021/04/15 00:49:25;78286.00;0.26;136.08;0.00;0.00;0.62;;;;;11.20;1.00;;;;;;2245217;61;1030;-87
2021/04/15 00:51:55;43854.00;0.15;76.56;0.00;0.00;0.62;;;;;11.10;1.00;;;;;;2246830;61;2001;-89
2021/04/15 00:54:46;101897.00;0.34;176.85;0.00;0.00;0.62;;;;;11.10;1.00;;;;;;2249263;61;942;-89
2021/04/15 00:57:17;68487.00;0.23;119.15;0.00;0.00;0.62;;;;;11.10;1.00;;;;;;2241334;61;995;-88
2021/04/15 00:59:45;191298.00;0.64;330.94;0.00;0.00;0.62;;;;;11.10;1.00;;;;;;2240572;62;1445;-87
2021/04/15 01:02:16;0.00;0.00;0.62;0.00;0.00;0.62;;;;;11.50;1.00;;;;;;2240643;62;1103;-89
2021/04/15 01:04:43;80840.00;0.27;140.49;0.00;0.00;0.62;;;;;11.80;1.00;;;;;;2236666;62;940;-88
2021/04/15 01:07:12;62880.00;0.21;109.46;0.00;0.00;0.62;;;;;11.80;1.00;;;;;;2236719;62;1068;-88
2021/04/15 01:09:39;7827.00;0.03;14.18;0.00;0.00;0.62;;;;;11.60;1.00;;;;;;2227034;62;1315;-89
2021/04/15 01:12:27;100881.00;0.34;175.09;0.00;0.00;0.62;;;;;11.40;1.00;;;;;;2230210;62;1916;-89
2021/04/15 01:15:13;399575.00;1.33;689.07;85230.00;0.28;148.07;;;;;11.40;1.00;;;;;;2230204;62;1021;-89
2021/04/15 01:17:50;182818.00;0.61;316.34;86772.00;0.29;150.73;;;;;11.50;1.00;;;;;;2232088;61;1006;-90
2021/04/15 01:21:04;371847.00;1.24;641.41;82745.00;0.28;143.78;;;;;11.40;1.00;;;;;;2230831;61;1350;-88
2021/04/15 01:23:37;52333.00;0.17;91.22;0.00;0.00;0.62;;;;;11.40;1.00;;;;;;2232144;62;960;-87
2021/04/15 01:26:34;269018.00;0.90;464.66;83327.00;0.28;144.78;;;;;11.60;1.00;;;;;;2230217;62;1053;-87
2021/04/15 01:29:14;216781.00;0.72;374.80;0.00;0.00;0.62;;;;;11.90;1.00;;;;;;2233197;62;986;-89
2021/04/15 01:31:56;507368.00;1.69;874.51;86182.00;0.29;149.71;;;;;12.10;1.00;;;;;;2233250;62;2007;-89
2021/04/15 01:34:28;430052.00;1.43;741.48;0.00;0.00;0.62;;;;;12.30;1.00;;;;;;2247901;61;1105;-88
2021/04/15 01:37:00;236188.00;0.79;408.19;0.00;0.00;0.62;;;;;12.50;1.00;;;;;;2248381;61;1062;-89
2021/04/15 01:39:34;341348.00;1.14;588.99;0.00;0.00;0.62;;;;;12.40;1.00;;;;;;2248307;61;1012;-90
2021/04/15 01:42:05;401040.00;1.34;691.59;75239.00;0.25;130.81;;;;;12.10;1.00;;;;;;2254748;61;1432;-87
2021/04/15 01:44:40;511604.00;1.71;881.80;89803.00;0.30;155.97;;;;;11.90;1.00;;;;;;2257009;61;969;-88
2021/04/15 01:47:13;450488.00;1.50;776.62;88536.00;0.30;153.78;;;;;11.90;1.00;;;;;;2257027;61;990;-88
2021/04/15 01:49:44;410411.00;1.37;707.70;86526.00;0.29;150.31;;;;;11.80;1.00;;;;;;2253679;61;1464;-89
2021/04/15 01:52:14;490874.00;1.64;846.11;88923.00;0.30;154.45;;;;;12.10;1.00;;;;;;2256948;61;2003;-88
2021/04/15 01:54:48;429543.00;1.43;740.60;89519.00;0.30;155.48;;;;;12.40;1.00;;;;;;2260158;61;995;-89
2021/04/15 01:57:21;363032.00;1.21;626.26;73543.00;0.25;127.88;;;;;12.70;1.00;;;;;;2264762;61;1172;-87
2021/04/15 01:59:57;193419.00;0.64;334.59;0.00;0.00;0.62;;;;;12.80;1.00;;;;;;2260174;61;1360;-88
2021/04/15 02:02:28;291853.00;0.97;503.91;0.00;0.00;0.62;;;;;12.40;1.00;;;;;;2260313;61;1024;-90
2021/04/15 02:05:01;231908.00;0.77;400.83;0.00;0.00;0.62;;;;;12.20;1.00;;;;;;2256910;61;982;-87
2021/04/15 02:07:34;235258.00;0.78;406.59;0.00;0.00;0.62;;;;;12.40;1.00;;;;;;2256975;61;1005;-90
2021/04/15 02:10:01;210761.00;0.70;364.44;0.00;0.00;0.62;;;;;12.30;1.00;;;;;;2252200;61;1355;-90
2021/04/15 02:12:31;282359.00;0.94;487.59;0.00;0.00;0.62;;;;;12.40;1.00;;;;;;2252198;61;1932;-89
2021/04/15 02:15:04;152412.00;0.51;263.96;0.00;0.00;0.62;;;;;12.50;1.00;;;;;;2242475;61;1010;-89
2021/04/15 02:17:35;191494.00;0.64;331.28;0.00;0.00;0.62;;;;;12.70;1.00;;;;;;2253745;61;1000;-90
2021/04/15 02:20:08;215308.00;0.72;372.27;0.00;0.00;0.62;;;;;12.50;1.00;;;;;;2256224;61;1444;-89
2021/04/15 02:22:41;113533.00;0.38;196.93;0.00;0.00;0.62;;;;;12.60;1.00;;;;;;2256313;61;1026;-89
2021/04/15 02:25:14;140056.00;0.47;242.67;0.00;0.00;0.62;;;;;12.70;1.00;;;;;;2256194;61;920;-89
2021/04/15 02:27:45;32133.00;0.11;56.27;0.00;0.00;0.62;;;;;12.50;1.00;;;;;;2257545;61;970;-88
2021/04/15 02:30:18;179965.00;0.60;311.43;0.00;0.00;0.62;;;;;12.50;1.00;;;;;;2260998;61;1446;-88
2021/04/15 02:32:51;138938.00;0.46;240.74;20475.00;0.07;36.09;;;;;12.70;1.00;;;;;;2264660;61;1928;-89
2021/04/15 02:35:24;177458.00;0.59;307.11;0.00;0.00;0.62;;;;;12.70;1.00;;;;;;2254364;61;1038;-88
2021/04/15 02:37:56;57486.00;0.19;100.13;0.00;0.00;0.62;;;;;12.70;1.00;;;;;;2264679;61;890;-88
2021/04/15 02:40:27;321378.00;1.07;554.67;0.00;0.00;0.62;;;;;12.30;1.00;;;;;;2260772;61;1338;-90
2021/04/15 02:42:58;81253.00;0.27;141.20;0.00;0.00;0.62;;;;;10.80;1.00;;;;;;2260890;61;931;-88
2021/04/15 02:45:31;331471.00;1.10;572.01;0.00;0.00;0.62;;;;;9.80;1.00;;;;;;2260850;61;1007;-88
2021/04/15 02:48:05;190028.00;0.63;328.76;0.00;0.00;0.62;;;;;9.30;1.00;;;;;;2257541;61;990;-89
2021/04/15 02:50:35;187164.00;0.62;323.83;0.00;0.00;0.62;;;;;8.80;1.00;;;;;;2260775;61;1999;-88
2021/04/15 02:53:22;92845.00;0.31;161.22;0.00;0.00;0.62;;;;;8.10;1.00;;;;;;2260865;61;1030;-89
2021/04/15 02:55:53;32542.00;0.11;56.98;0.00;0.00;0.62;;;;;8.50;1.00;;;;;;2260057;61;1057;-88
2021/04/15 02:58:29;0.00;0.00;0.62;0.00;0.00;0.62;;;;;8.40;1.00;;;;;;2260162;61;946;-88
2021/04/15 03:00:58;26663.00;0.09;46.81;0.00;0.00;0.62;;;;;8.50;1.00;;;;;;2260017;61;1405;-88
2021/04/15 03:03:30;20122.00;0.07;35.48;0.00;0.00;0.62;;;;;8.50;1.00;;;;;;2260110;61;1179;-90
2021/04/15 03:06:03;188035.00;0.63;325.33;0.00;0.00;0.62;;;;;8.70;1.00;;;;;;2252043;61;913;-88
2021/04/15 03:08:31;40045.00;0.13;69.97;0.00;0.00;0.62;;;;;9.00;1.00;;;;;;2251866;61;1045;-88
2021/04/15 03:11:01;19365.00;0.06;34.17;0.00;0.00;0.62;;;;;9.60;1.00;;;;;;2251858;61;2007;-89
2021/04/15 03:13:34;26309.00;0.09;46.19;0.00;0.00;0.62;;;;;10.20;1.00;;;;;;2248298;61;1059;-90
2021/04/15 03:16:06;0.00;0.00;0.62;0.00;0.00;0.62;;;;;10.40;1.00;;;;;;2260081;61;919;-87
2021/04/15 03:18:39;14752.00;0.05;26.18;0.00;0.00;0.62;;;;;10.70;1.00;;;;;;2260087;61;911;-90
2021/04/15 03:21:12;101184.00;0.34;175.62;0.00;0.00;0.62;;;;;11.10;1.00;;;;;;2256613;61;1397;-88
2021/04/15 03:23:46;40210.00;0.13;70.25;0.00;0.00;0.62;;;;;10.80;1.00;;;;;;2261704;61;1007;-89
2021/04/15 03:26:24;35183.00;0.12;61.55;0.00;0.00;0.62;;;;;11.10;1.00;;;;;;2257513;61;960;-89
2021/04/15 03:29:03;97040.00;0.32;168.46;0.00;0.00;0.62;;;;;11.70;1.00;;;;;;2251982;61;911;-88
2021/04/15 03:31:42;0.00;0.00;0.62;0.00;0.00;0.62;;;;;11.80;1.00;;;;;;2248551;61;2001;-88
2021/04/15 03:34:20;0.00;0.00;0.62;0.00;0.00;0.62;;;;;11.70;1.00;;;;;;2248683;61;993;-87
2021/04/15 03:36:51;0.00;0.00;0.62;0.00;0.00;0.62;;;;;11.80;1.00;;;;;;2245374;61;1044;-88
2021/04/15 03:39:24;2238.00;0.01;4.50;0.00;0.00;0.62;;;;;12.10;1.00;;;;;;2247985;61;1025;-87
2021/04/15 03:41:55;88955.00;0.30;154.50;0.00;0.00;0.62;;;;;12.30;1.00;;;;;;2248021;61;1468;-89
2021/04/15 03:44:26;0.00;0.00;0.62;0.00;0.00;0.62;;;;;12.50;1.00;;;;;;2236159;62;956;-88
2021/04/15 03:46:58;0.00;0.00;0.62;0.00;0.00;0.62;;;;;12.30;1.00;;;;;;2238966;61;1037;-88
2021/04/15 03:49:33;266069.00;0.89;459.58;27188.00;0.09;47.72;;;;;11.90;1.00;;;;;;2248046;61;1034;-88
2021/04/15 03:52:05;95873.00;0.32;166.45;0.00;0.00;0.62;;;;;11.70;1.00;;;;;;2241376;61;1920;-88
2021/04/15 03:54:38;19964.00;0.07;35.21;0.00;0.00;0.62;;;;;12.00;1.00;;;;;;2242128;61;932;-88
2021/04/15 03:57:10;23494.00;0.08;41.32;0.00;0.00;0.62;;;;;12.10;1.00;;;;;;2250327;61;1031;-88
2021/04/15 03:59:46;9681.00;0.03;17.40;0.00;0.00;0.62;;;;;11.80;1.00;;;;;;2252641;61;1026;-87
2021/04/15 04:02:17;42344.00;0.14;73.94;0.00;0.00;0.62;;;;;11.80;1.00;;;;;;2257963;61;1017;-89
2021/04/15 04:04:51;55081.00;0.18;95.97;0.00;0.00;0.62;;;;;11.90;1.00;;;;;;2258028;61;982;-89
2021/04/15 04:07:24;89571.00;0.30;155.57;0.00;0.00;0.62;;;;;11.90;1.00;;;;;;2260478;61;956;-89
2021/04/15 04:09:57;20496.00;0.07;36.13;0.00;0.00;0.62;;;;;12.00;1.00;;;;;;2256508;61;1448;-88
2021/04/15 04:12:31;24786.00;0.08;43.56;0.00;0.00;0.62;;;;;11.90;1.00;;;;;;2249948;61;2001;-88
2021/04/15 04:15:05;38445.00;0.13;67.20;0.00;0.00;0.62;;;;;12.00;1.00;;;;;;2249917;61;939;-87
2021/04/15 04:17:39;0.00;0.00;0.62;0.00;0.00;0.62;;;;;12.20;1.00;;;;;;2248563;61;967;-88
2021/04/15 04:20:08;164700.00;0.55;285.14;0.00;0.00;0.62;;;;;12.40;1.00;;;;;;2245241;61;1367;-88
2021/04/15 04:22:46;48993.00;0.16;85.44;0.00;0.00;0.62;;;;;12.20;1.00;;;;;;2248489;61;967;-88
2021/04/15 04:25:21;54540.00;0.18;95.04;0.00;0.00;0.62;;;;;11.90;1.00;;;;;;2248616;61;1023;-88
2021/04/15 04:27:55;40930.00;0.14;71.50;0.00;0.00;0.62;;;;;11.70;1.00;;;;;;2242024;61;964;-88
2021/04/15 04:30:27;26100.00;0.09;45.83;0.00;0.00;0.62;;;;;11.60;1.00;;;;;;2248632;61;1413;-88
2021/04/15 04:32:58;9257.00;0.03;16.66;0.00;0.00;0.62;;;;;11.30;1.00;;;;;;2252291;61;2017;-89
2021/04/15 04:35:31;33051.00;0.11;57.86;0.00;0.00;0.62;;;;;11.50;1.00;;;;;;2253566;61;1061;-87
2021/04/15 04:38:03;12547.00;0.04;22.36;0.00;0.00;0.62;;;;;11.60;1.00;;;;;;2261146;61;1065;-90
2021/04/15 04:40:36;0.00;0.00;0.62;0.00;0.00;0.62;;;;;11.50;1.00;;;;;;2264875;61;1332;-87
2021/04/15 04:43:12;25398.00;0.08;44.62;0.00;0.00;0.62;;;;;11.60;1.00;;;;;;2260333;61;988;-87
2021/04/15 04:45:39;102682.00;0.34;178.20;35808.00;0.12;62.63;;;;;11.90;1.00;;;;;;2256241;61;948;-88
2021/04/15 04:48:18;90973.00;0.30;157.99;6953.00;0.02;12.67;;;;;11.90;1.00;;;;;;2246521;61;1033;-88
2021/04/15 04:50:51;0.00;0.00;0.62;0.00;0.00;0.62;;;;;11.90;1.00;;;;;;2256247;61;2009;-88
2021/04/15 04:53:24;19877.00;0.07;35.06;0.00;0.00;0.62;;;;;11.90;1.00;;;;;;2256415;61;966;-88
2021/04/15 04:56:18;233832.00;0.78;404.14;0.00;0.00;0.62;;;;;11.70;1.00;;;;;;2256431;61;1057;-87
2021/04/15 04:58:49;120871.00;0.40;209.58;0.00;0.00;0.62;;;;;11.70;1.00;;;;;;2246433;61;1106;-88
2021/04/15 05:01:16;0.00;0.00;0.62;0.00;0.00;0.62;;;;;11.60;1.00;;;;;;2258674;61;1312;-88
2021/04/15 05:03:44;0.00;0.00;0.62;0.00;0.00;0.62;;;;;11.50;1.00;;;;;;2262682;61;1048;-89
2021/04/15 05:06:20;32164.00;0.11;56.33;0.00;0.00;0.62;;;;;11.50;1.00;;;;;;2261028;61;979;-88
2021/04/15 05:08:55;11581.00;0.04;20.69;0.00;0.00;0.62;;;;;11.70;1.00;;;;;;2261086;61;950;-87
2021/04/15 05:11:22;0.00;0.00;0.62;0.00;0.00;0.62;;;;;11.60;1.00;;;;;;2260216;61;1923;-87
2021/04/15 05:13:50;26598.00;0.09;46.69;0.00;0.00;0.62;;;;;10.60;1.00;;;;;;2260221;61;1028;-86
2021/04/15 05:16:16;18939.00;0.06;33.43;0.00;0.00;0.62;;;;;9.70;1.00;;;;;;2260286;61;1005;-87
2021/04/15 05:18:44;98828.00;0.33;171.55;0.00;0.00;0.62;;;;;8.80;1.00;;;;;;2260300;61;1005;-87
2021/04/15 05:21:15;92049.00;0.31;159.85;0.00;0.00;0.62;;;;;8.10;1.00;;;;;;2253660;61;1355;-89
2021/04/15 05:23:49;62698.00;0.21;109.14;0.00;0.00;0.62;;;;;7.90;1.00;;;;;;2250443;61;952;-88
2021/04/15 05:26:19;0.00;0.00;0.62;0.00;0.00;0.62;;;;;8.90;1.00;;;;;;2260182;61;1033;-89
2021/04/15 05:28:48;130700.00;0.44;226.54;14846.00;0.05;26.34;;;;;9.00;1.00;;;;;;2250298;61;967;-88
2021/04/15 05:31:20;125762.00;0.42;218.02;0.00;0.00;0.62;;;;;8.50;1.00;;;;;;2252144;61;1918;-87
2021/04/15 05:33:57;9533.00;0.03;17.14;0.00;0.00;0.62;;;;;8.20;1.00;;;;;;2245612;61;1014;-87
2021/04/15 05:36:30;190263.00;0.63;329.16;35167.00;0.12;61.53;;;;;7.80;1.00;;;;;;2245633;61;970;-90
2021/04/15 05:39:01;38621.00;0.13;67.50;0.00;0.00;0.62;;;;;7.60;1.00;;;;;;2244123;61;963;-89
2021/04/15 05:41:32;194114.00;0.65;335.79;0.00;0.00;0.62;;;;;7.70;1.00;;;;;;2244128;61;1418;-89
2021/04/15 05:44:03;156869.00;0.52;271.64;0.00;0.00;0.62;;;;;7.50;1.00;;;;;;2248143;61;960;-91
2021/04/15 05:46:38;214151.00;0.71;370.28;0.00;0.00;0.62;;;;;7.10;1.00;;;;;;2239949;62;1014;-89
2021/04/15 05:49:09;71229.00;0.24;123.88;0.00;0.00;0.62;;;;;7.60;1.00;;;;;;2241915;62;1030;-90
2021/04/15 05:51:54;29039.00;0.10;50.92;0.00;0.00;0.62;;;;;8.10;1.00;;;;;;2234226;62;1928;-89
2021/04/15 05:54:23;48507.00;0.16;84.60;0.00;0.00;0.62;;;;;8.10;1.00;;;;;;2244269;62;971;-87
2021/04/15 05:56:59;34441.00;0.11;60.27;0.00;0.00;0.62;;;;;8.80;1.00;;;;;;2238029;62;996;-88
2021/04/15 05:59:39;0.00;0.00;0.62;0.00;0.00;0.62;;;;;9.10;1.00;;;;;;2240283;62;959;-87
2021/04/15 06:02:18;174362.00;0.58;301.78;88115.00;0.29;153.05;;;;;9.70;1.00;;;;;;2240267;62;1078;-87
2021/04/15 06:04:53;300213.00;1.00;518.29;89308.00;0.30;155.11;;;;;10.60;1.00;;;;;;2244898;61;1003;-85
2021/04/15 06:07:24;171453.00;0.57;296.77;90454.00;0.30;157.09;;;;;11.50;1.00;;;;;;2248807;61;1021;-86
2021/04/15 06:09:51;221377.00;0.74;382.71;88443.00;0.29;153.62;;;;;12.00;1.00;;;;;;2252063;61;1436;-85
2021/04/15 06:12:28;244632.00;0.82;422.72;86634.00;0.29;150.50;;;;;11.90;1.00;;;;;;2251992;61;2005;-88
2021/04/15 06:15:02;255202.00;0.85;440.90;88376.00;0.29;153.50;;;;;12.30;1.00;;;;;;2254199;61;987;-87
2021/04/15 06:17:32;300312.00;1.00;518.46;95145.00;0.32;165.19;;;;;12.40;1.00;;;;;;2249415;61;1047;-87
2021/04/15 06:20:07;303979.00;1.01;524.76;84317.00;0.28;146.49;;;;;12.60;1.00;;;;;;2256163;61;1392;-88
2021/04/15 06:22:38;251774.00;0.84;435.00;88822.00;0.30;154.27;;;;;12.40;1.00;;;;;;2256026;61;870;-90
2021/04/15 06:25:08;314649.00;1.05;543.10;84677.00;0.28;147.12;;;;;12.80;1.00;;;;;;2256085;61;971;-88
2021/04/15 06:30:08;333218.00;1.11;575.02;87407.00;0.29;151.83;;;;;13.10;1.00;;;;;;2266375;61;1431;-88
2021/04/15 06:35:06;338327.00;1.13;583.80;88620.00;0.30;153.92;;;;;10.60;1.00;;;;;;2266670;61;1431;-89
2021/04/15 06:37:41;275496.00;0.92;475.79;101085.00;0.34;175.44;;;;;9.60;1.00;;;;;;2260885;61;1005;-88
2021/04/15 06:40:46;240153.00;0.80;415.01;86035.00;0.29;149.46;;;;;9.60;1.00;;;;;;2260712;61;1412;-87
2021/04/15 06:43:41;212963.00;0.71;368.23;0.00;0.00;0.62;;;;;9.90;1.00;;;;;;2254233;61;940;-88
2021/04/15 06:46:25;208908.00;0.70;361.26;0.00;0.00;0.62;;;;;10.40;1.00;;;;;;2260798;61;1075;-88
2021/04/15 06:49:22;378558.00;1.26;652.95;90442.00;0.30;157.07;;;;;10.70;1.00;;;;;;2264516;61;907;-87
2021/04/15 06:52:01;399388.00;1.33;688.75;89970.00;0.30;156.26;;;;;10.60;1.00;;;;;;2260622;61;2010;-85
2021/04/15 06:54:41;474683.00;1.58;818.25;93080.00;0.31;161.63;;;;;11.00;1.00;;;;;;2260725;61;967;-88
2021/04/15 06:57:25;344408.00;1.15;594.25;85055.00;0.28;147.77;;;;;10.90;1.00;;;;;;2264459;61;1006;-86
2021/04/15 07:00:14;485004.00;1.62;836.01;82402.00;0.27;143.19;;;;;11.10;1.00;;;;;;2259939;61;1457;-86
2021/04/15 07:03:02;310893.00;1.04;536.64;160946.00;0.54;278.67;;;;;11.10;1.00;;;;;;2253059;61;1063;-87
2021/04/15 07:05:32;322390.00;1.07;556.41;93109.00;0.31;161.68;;;;;11.50;1.00;;;;;;2253378;61;932;-87
2021/04/15 07:08:04;3043.00;0.01;5.89;0.00;0.00;0.62;;;;;12.00;1.00;;;;;;2259856;61;1165;-87
2021/04/15 07:11:05;67204.00;0.22;116.93;0.00;0.00;0.62;;;;;12.50;1.00;;;;;;2256486;61;1403;-88
2021/04/15 07:14:02;20613.00;0.07;36.33;0.00;0.00;0.62;;;;;11.70;1.00;;;;;;2236119;62;978;-88
2021/04/15 07:17:04;62806.00;0.21;109.33;0.00;0.00;0.62;;;;;11.80;1.00;;;;;;2243903;61;998;-88
2021/04/15 07:20:01;7245.00;0.02;13.18;0.00;0.00;0.62;;;;;12.50;1.00;;;;;;2248003;61;1061;-88
2021/04/15 07:23:16;156002.00;0.52;270.15;0.00;0.00;0.62;;;;;13.10;1.00;;;;;;2244696;61;1021;-88
2021/04/15 07:26:00;38880.00;0.13;67.95;0.00;0.00;0.62;;;;;14.30;1.00;;;;;;2241372;61;983;-87
2021/04/15 07:31:19;162866.00;0.54;281.98;0.00;0.00;0.62;;;;;14.30;1.00;;;;;;2266498;61;1438;-88
2021/04/15 07:34:15;13041.00;0.04;23.22;0.00;0.00;0.62;;;;;14.20;1.00;;;;;;2258083;61;1018;-88
2021/04/15 07:41:57;856468.00;2.85;1479.79;0.00;0.00;0.62;;;;;14.90;1.00;;;;;;2266613;61;1433;-87
2021/04/15 07:44:33;122611.00;0.41;212.59;24217.00;0.08;42.57;;;;;14.30;1.00;;;;;;2257969;61;1011;-87
2021/04/15 07:59:51;4754.00;0.02;8.86;0.00;0.00;0.62;;;;;15.20;1.00;;;;;;2262409;61;1336;-88
2021/04/15 08:02:56;65482.00;0.22;113.95;0.00;0.00;0.62;;;;;15.40;1.00;;;;;;2257019;61;953;-90
2021/04/15 08:05:51;89403.00;0.30;155.28;0.00;0.00;0.62;;;;;15.30;1.00;;;;;;2259792;61;987;-91
2021/04/15 08:08:47;0.00;0.00;0.62;0.00;0.00;0.62;;;;;15.30;1.00;;;;;;2248589;61;1115;-89
2021/04/15 08:11:30;0.00;0.00;0.62;0.00;0.00;0.62;;;;;15.40;1.00;;;;;;2240570;61;1920;-89
2021/04/15 08:14:24;7965.00;0.03;14.42;0.00;0.00;0.62;;;;;15.70;1.00;;;;;;2230950;61;1030;-90
2021/04/15 08:21:56;605025.00;2.02;1042.90;0.00;0.00;0.62;;;;;14.80;1.00;;;;;;2266669;61;1421;-90
2021/04/15 08:24:41;274859.00;0.92;474.70;86951.00;0.29;151.04;;;;;14.70;1.00;;;;;;2261188;61;944;-88
2021/04/15 08:29:52;104655.00;0.35;181.61;0.00;0.00;0.62;;;;;14.90;1.00;;;;;;2266353;61;1387;-86
2021/04/15 08:35:00;293319.00;0.98;506.44;0.00;0.00;0.62;;;;;14.00;1.00;;;;;;2266739;61;1413;-88
2021/04/15 08:37:56;38222.00;0.13;66.81;0.00;0.00;0.62;;;;;14.00;1.00;;;;;;2261139;61;995;-89
2021/04/15 08:43:02;132342.00;0.44;229.37;0.00;0.00;0.62;;;;;12.40;1.00;;;;;;2266819;61;1388;-90
2021/04/15 08:45:40;356.00;0.00;1.24;0.00;0.00;0.62;;;;;12.20;1.00;;;;;;2260318;61;996;-88
2021/04/15 08:48:35;135947.00;0.45;235.58;27284.00;0.09;47.88;;;;;12.10;1.00;;;;;;2257047;61;1034;-90
2021/04/15 08:51:33;130354.00;0.43;225.94;0.00;0.00;0.62;;;;;11.80;1.00;;;;;;2256276;61;1330;-88
2021/04/15 08:54:15;45351.00;0.15;79.15;0.00;0.00;0.62;;;;;12.30;1.00;;;;;;2246449;61;1028;-86
2021/04/15 08:56:49;92139.00;0.31;160.00;0.00;0.00;0.62;;;;;13.00;1.00;;;;;;2249692;61;962;-87
2021/04/15 08:59:44;40089.00;0.13;70.04;0.00;0.00;0.62;;;;;12.00;1.00;;;;;;2248061;61;989;-88
2021/04/15 09:04:52;359323.00;1.20;619.89;0.00;0.00;0.62;;;;;11.10;1.00;;;;;;2265989;61;1388;-89
2021/04/15 09:10:00;330013.00;1.10;569.51;0.00;0.00;0.62;;;;;11.30;1.00;;;;;;2266724;61;1316;-89
2021/04/15 09:12:49;43114.00;0.14;75.28;0.00;0.00;0.62;;;;;10.90;1.00;;;;;;2264545;61;1916;-89
2021/04/15 09:35:11;335809.00;1.12;579.47;101384.00;0.34;175.96;;;;;10.00;1.00;;;;;;2266543;61;1408;-88
2021/04/15 09:38:12;186349.00;0.62;322.42;90045.00;0.30;156.39;;;;;10.20;1.00;;;;;;2260175;61;998;-88
2021/04/15 09:43:19;338943.00;1.13;584.86;25367.00;0.08;44.56;;;;;9.70;1.00;;;;;;2270511;61;1402;-88
2021/04/15 09:45:52;236420.00;0.79;408.59;0.00;0.00;0.62;;;;;9.50;1.00;;;;;;2271105;55;2443;-88
2021/04/15 09:50:54;45518.00;0.15;79.43;0.00;0.00;0.62;;;;;10.30;1.00;;;;;;2266045;61;1434;-88
2021/04/15 09:58:30;234536.00;0.78;405.35;0.00;0.00;0.62;;;;;9.90;1.00;;;;;;2266503;61;1379;-90
2021/04/15 10:01:00;248534.00;0.83;429.43;0.00;0.00;0.62;;;;;9.80;1.00;;;;;;2260813;61;1448;-87
2021/04/15 10:03:40;231059.00;0.77;399.37;0.00;0.00;0.62;;;;;9.70;1.00;;;;;;2264611;61;934;-88
2021/04/15 10:06:18;385617.00;1.29;665.08;93919.00;0.31;163.07;;;;;9.90;1.00;;;;;;2257533;61;1009;-89
2021/04/15 10:19:01;183297.00;0.61;317.17;0.00;0.00;0.62;;;;;10.80;1.00;;;;;;2266429;61;1397;-88
2021/04/15 10:21:49;12241.00;0.04;21.83;0.00;0.00;0.62;;;;;10.40;1.00;;;;;;2264586;61;1430;-91
2021/04/15 10:24:24;53002.00;0.18;92.38;0.00;0.00;0.62;;;;;9.60;1.00;;;;;;2302520;39;2313;-89
2021/04/15 10:27:39;203774.00;0.68;352.42;0.00;0.00;0.62;;;;;10.10;1.00;;;;;;2267229;61;1391;-88
2021/04/15 10:38:03;431856.00;1.44;744.58;0.00;0.00;0.62;;;;;11.30;1.00;;;;;;2266098;61;1387;-89
2021/04/15 10:40:44;222060.00;0.74;383.89;16775.00;0.06;29.68;;;;;11.80;1.00;;;;;;2341288;40;2492;-88
2021/04/15 10:46:08;134259.00;0.45;232.67;0.00;0.00;0.62;;;;;13.20;1.00;;;;;;2266109;61;1211;-89
2021/04/15 10:51:07;442019.00;1.47;762.06;68015.00;0.23;118.33;;;;;11.90;1.00;;;;;;2266504;61;1382;-90
2021/04/15 10:53:46;55123.00;0.18;96.05;0.00;0.00;0.62;;;;;11.50;1.00;;;;;;2265055;61;1940;-89
2021/04/15 10:56:42;592910.00;1.98;1021.98;183438.00;0.61;317.41;;;;;10.20;1.00;;;;;;2257464;61;1026;-87
2021/04/15 10:59:15;269622.00;0.90;465.69;58278.00;0.19;101.50;;;;;9.50;1.00;;;;;;2264477;61;1019;-87
2021/04/15 11:01:44;131149.00;0.44;227.31;0.00;0.00;0.62;;;;;9.30;1.00;;;;;;2264386;61;1439;-87
2021/04/15 11:04:29;255340.00;0.85;441.13;0.00;0.00;0.62;;;;;9.30;1.00;;;;;;2255924;61;1061;-89
2021/04/15 11:06:58;431449.00;1.44;743.88;84728.00;0.28;147.20;;;;;9.50;1.00;;;;;;2252650;61;974;-90
2021/04/15 11:09:36;206735.00;0.69;357.52;84487.00;0.28;146.79;;;;;9.70;1.00;;;;;;2256045;61;945;-90
2021/04/15 11:12:17;294212.00;0.98;507.97;108699.00;0.36;188.59;;;;;10.20;1.00;;;;;;2255920;61;2020;-87
2021/04/15 11:14:58;520195.00;1.73;896.60;115574.00;0.39;200.45;;;;;10.60;1.00;;;;;;2256052;61;1112;-89
2021/04/15 11:17:29;356462.00;1.19;614.97;0.00;0.00;0.62;;;;;10.80;1.00;;;;;;2248044;61;976;-88
2021/04/15 11:20:29;365473.00;1.22;630.46;26555.00;0.09;46.62;;;;;11.00;1.00;;;;;;2248092;61;1302;-88
2021/04/15 11:23:05;23131.00;0.08;40.69;0.00;0.00;0.62;;;;;11.40;1.00;;;;;;2251838;61;1070;-89
2021/04/15 11:25:36;215090.00;0.72;371.89;25655.00;0.09;45.06;;;;;10.60;1.00;;;;;;2251948;61;974;-89
2021/04/15 11:30:53;535930.00;1.79;923.71;0.00;0.00;0.62;;;;;9.60;1.00;;;;;;2265894;61;1423;-90
2021/04/15 11:33:33;80694.00;0.27;140.24;0.00;0.00;0.62;;;;;9.40;1.00;;;;;;2249254;61;1933;-89
2021/04/15 11:36:11;53744.00;0.18;93.66;0.00;0.00;0.62;;;;;9.10;1.00;;;;;;2255975;61;926;-90
2021/04/15 11:38:38;17925.00;0.06;31.68;0.00;0.00;0.62;;;;;9.20;1.00;;;;;;2249340;61;1008;-87
2021/04/15 11:41:16;33341.00;0.11;58.37;0.00;0.00;0.62;;;;;9.30;1.00;;;;;;2249266;61;1416;-88
2021/04/15 11:43:43;11825.00;0.04;21.11;0.00;0.00;0.62;;;;;8.90;1.00;;;;;;2245985;61;1019;-91
2021/04/15 11:46:22;39903.00;0.13;69.72;0.00;0.00;0.62;;;;;8.70;1.00;;;;;;2246002;61;963;-87
2021/04/15 11:49:07;77300.00;0.26;134.37;0.00;0.00;0.62;;;;;8.40;1.00;;;;;;2247777;61;1049;-87
2021/04/15 11:54:13;132686.00;0.44;229.96;0.00;0.00;0.62;;;;;9.90;1.00;;;;;;2266080;61;1399;-88
2021/04/15 11:56:42;143770.00;0.48;249.07;0.00;0.00;0.62;;;;;10.50;1.00;;;;;;2255765;61;913;-88
2021/04/15 11:59:22;28718.00;0.10;50.36;0.00;0.00;0.62;;;;;10.90;1.00;;;;;;2255855;61;919;-87
2021/04/15 12:01:50;153771.00;0.51;266.31;0.00;0.00;0.62;;;;;10.90;1.00;;;;;;2251700;61;1469;-87
2021/04/15 12:04:24;0.00;0.00;0.62;0.00;0.00;0.62;;;;;11.30;1.00;;;;;;2245227;61;1002;-90
2021/04/15 12:06:59;23920.00;0.08;42.06;0.00;0.00;0.62;;;;;11.30;1.00;;;;;;2243806;61;987;-88
2021/04/15 12:09:33;211452.00;0.70;365.63;46429.00;0.15;81.01;;;;;11.40;1.00;;;;;;2243830;61;1067;-89
2021/04/15 12:12:09;163573.00;0.55;283.20;0.00;0.00;0.62;;;;;10.90;1.00;;;;;;2235799;62;1932;-90
2021/04/15 12:14:37;57106.00;0.19;99.47;0.00;0.00;0.62;;;;;10.80;1.00;;;;;;2234204;62;952;-89
2021/04/15 12:19:43;80150.00;0.27;139.30;0.00;0.00;0.62;;;;;10.10;1.00;;;;;;2270812;61;1426;-89
2021/04/15 12:22:21;54606.00;0.18;95.15;0.00;0.00;0.62;;;;;10.30;1.00;;;;;;2260333;61;953;-88
2021/04/15 12:24:50;179869.00;0.60;311.26;0.00;0.00;0.62;;;;;10.00;1.00;;;;;;2260484;61;1014;-87